Time;durP1;ratioP1;P1;durP2;ratioP2;P2;SDS_P1;SDS_P2;PMS_P1;PMS_P2;Temp;Humidity;BMP_temperature;BMP_pressure;BME280_temperature;BME280_humidity;BME280_pressure;Samples;Min_cycle;Max_cycle;Signal;HPM_P1;HPM_P2
2023/05/31 00:01:05;;;;;;;2.57;1.80;;;13.70;93.20;;;;;;5039602;28;20493;-80
2023/05/31 00:03:32;;;;;;;2.47;2.00;;;13.60;93.50;;;;;;5038411;28;20488;-80
2023/05/31 00:06:00;;;;;;;3.43;1.90;;;13.60;93.50;;;;;;5045386;28;21019;-80
2023/05/31 00:08:27;;;;;;;2.53;1.63;;;13.60;93.70;;;;;;5042565;28;20439;-80
2023/05/31 00:10:54;;;;;;;3.80;1.90;;;13.50;94.10;;;;;;5042600;28;20441;-80
2023/05/31 00:13:21;;;;;;;5.07;1.37;;;13.40;94.40;;;;;;5037037;28;20489;-80
2023/05/31 00:15:48;;;;;;;2.27;1.47;;;13.30;94.40;;;;;;5044146;28;21504;-81
2023/05/31 00:18:15;;;;;;;2.57;1.60;;;13.30;94.70;;;;;;5040422;28;20469;-81
2023/05/31 00:20:42;;;;;;;2.07;1.87;;;13.30;94.80;;;;;;5037711;28;20477;-81
2023/05/31 00:23:11;;;;;;;3.17;1.77;;;13.30;95.10;;;;;;5029922;28;20960;-80
2023/05/31 00:25:38;;;;;;;2.97;1.43;;;13.10;95.60;;;;;;5034739;28;20464;-81
2023/05/31 00:28:05;;;;;;;1.87;1.53;;;13.00;96.10;;;;;;5039948;28;20496;-80
2023/05/31 00:30:31;;;;;;;3.67;2.23;;;13.00;96.20;;;;;;5041859;28;21000;-81
2023/05/31 00:32:58;;;;;;;3.80;1.80;;;13.00;96.50;;;;;;5032941;28;20479;-81
2023/05/31 00:35:25;;;;;;;2.37;1.67;;;12.90;96.50;;;;;;5037257;28;21291;-81
2023/05/31 00:37:52;;;;;;;5.73;2.70;;;12.90;97.00;;;;;;5034727;28;20994;-81
2023/05/31 00:40:20;;;;;;;2.60;1.97;;;12.80;97.20;;;;;;5038961;28;20481;-81
2023/05/31 00:42:47;;;;;;;2.23;1.70;;;12.80;97.70;;;;;;5036288;28;20478;-81
2023/05/31 00:45:14;;;;;;;2.23;1.53;;;12.70;97.80;;;;;;5040065;28;20469;-81
2023/05/31 00:47:42;;;;;;;2.90;2.00;;;12.60;98.20;;;;;;5037553;28;20469;-81
2023/05/31 00:50:09;;;;;;;4.30;2.00;;;12.60;98.50;;;;;;5036920;28;20528;-81
2023/05/31 00:52:36;;;;;;;3.03;2.00;;;12.60;98.90;;;;;;5039000;28;20441;-80
2023/05/31 00:55:03;;;;;;;3.87;2.50;;;12.60;99.20;;;;;;5029980;28;20543;-81
2023/05/31 00:57:32;;;;;;;4.60;2.20;;;12.70;99.50;;;;;;5040949;28;20473;-81
2023/05/31 00:59:59;;;;;;;2.67;1.77;;;12.60;99.80;;;;;;5040571;28;20546;-81
2023/05/31 01:02:26;;;;;;;5.97;2.87;;;12.50;99.90;;;;;;5038428;28;20478;-81
2023/05/31 01:04:53;;;;;;;3.73;2.80;;;12.50;99.90;;;;;;5038593;28;20495;-81
2023/05/31 01:07:20;;;;;;;9.80;2.23;;;12.50;99.90;;;;;;5046240;28;20452;-81
2023/05/31 01:09:47;;;;;;;3.83;2.03;;;12.50;99.90;;;;;;5043720;28;20481;-81
2023/05/31 01:12:22;;;;;;;3.97;2.00;;;12.40;99.90;;;;;;5029492;28;20536;-81
2023/05/31 01:15:04;;;;;;;3.10;1.90;;;12.30;99.90;;;;;;5044751;28;21016;-81
2023/05/31 01:17:36;;;;;;;2.13;1.83;;;12.30;99.90;;;;;;5042404;28;20472;-81
2023/05/31 01:20:08;;;;;;;3.57;3.27;;;12.30;99.90;;;;;;5043519;28;20949;-81
2023/05/31 01:22:48;;;;;;;4.73;2.20;;;12.30;99.90;;;;;;5027434;28;20469;-81
2023/05/31 01:25:35;;;;;;;2.93;2.00;;;12.40;99.90;;;;;;5041061;28;20468;-81
2023/05/31 01:28:06;;;;;;;3.80;2.63;;;12.40;99.90;;;;;;5039562;28;20530;-80
2023/05/31 01:30:35;;;;;;;4.53;2.67;;;12.40;99.90;;;;;;5041312;28;20481;-81
2023/05/31 01:33:04;;;;;;;4.33;2.67;;;12.40;99.90;;;;;;5036340;28;20506;-81
2023/05/31 01:35:31;;;;;;;3.53;2.07;;;12.40;99.80;;;;;;5037717;28;20489;-81
2023/05/31 01:37:58;;;;;;;3.67;2.40;;;12.40;99.70;;;;;;5033694;28;20481;-81
2023/05/31 01:40:25;;;;;;;5.33;1.73;;;12.30;99.90;;;;;;5039758;28;20461;-81
2023/05/31 01:42:53;;;;;;;1.60;1.50;;;12.20;99.90;;;;;;5038728;28;20474;-81
2023/05/31 01:45:23;;;;;;;4.87;2.87;;;12.20;99.90;;;;;;5039509;28;20493;-81
2023/05/31 01:47:54;;;;;;;2.70;1.80;;;12.20;99.90;;;;;;5032910;28;20501;-81
2023/05/31 01:50:21;;;;;;;3.90;2.60;;;12.20;99.90;;;;;;5032139;28;20529;-81
2023/05/31 01:52:48;;;;;;;3.23;2.37;;;12.20;99.90;;;;;;5043312;28;20931;-81
2023/05/31 01:55:15;;;;;;;3.00;1.60;;;12.10;99.90;;;;;;5039146;28;20543;-81
2023/05/31 01:57:45;;;;;;;4.63;2.83;;;12.10;99.90;;;;;;5040432;28;20448;-80
2023/05/31 02:00:14;;;;;;;3.33;1.47;;;12.00;99.90;;;;;;5037705;28;20504;-81
2023/05/31 02:02:43;;;;;;;2.97;1.97;;;11.90;99.90;;;;;;5027340;28;20943;-81
2023/05/31 02:05:12;;;;;;;4.07;2.20;;;11.90;99.90;;;;;;5043635;28;20518;-81
2023/05/31 02:07:40;;;;;;;4.63;2.10;;;11.90;99.90;;;;;;5038343;28;20535;-81
2023/05/31 02:10:08;;;;;;;5.67;2.20;;;11.90;99.90;;;;;;5035551;28;21019;-81
2023/05/31 02:12:35;;;;;;;3.87;2.10;;;12.00;99.90;;;;;;5046961;28;20457;-81
2023/05/31 02:15:03;;;;;;;3.90;2.90;;;12.00;99.90;;;;;;5041289;28;20521;-81
2023/05/31 02:17:32;;;;;;;3.50;2.30;;;12.00;99.90;;;;;;5047351;28;20480;-81
2023/05/31 02:20:02;;;;;;;6.67;2.40;;;12.00;99.90;;;;;;5036911;28;20449;-81
2023/05/31 02:22:29;;;;;;;4.43;2.20;;;12.00;99.90;;;;;;5031529;28;20442;-80
2023/05/31 02:24:56;;;;;;;4.40;2.27;;;12.10;99.90;;;;;;5040466;28;20473;-82
2023/05/31 02:27:23;;;;;;;6.27;2.17;;;12.00;99.90;;;;;;5038629;28;20457;-81
2023/05/31 02:29:50;;;;;;;6.80;3.20;;;12.00;99.90;;;;;;5040853;28;20488;-82
2023/05/31 02:32:17;;;;;;;2.20;1.60;;;12.10;99.80;;;;;;5033558;28;20450;-81
2023/05/31 02:34:45;;;;;;;7.57;2.40;;;12.20;99.20;;;;;;5034845;28;20513;-82
2023/05/31 02:37:13;;;;;;;2.97;1.50;;;12.20;98.90;;;;;;5036520;28;20452;-81
2023/05/31 02:39:40;;;;;;;3.10;2.00;;;12.20;99.00;;;;;;5035329;28;20485;-81
2023/05/31 02:42:08;;;;;;;4.90;2.13;;;12.10;99.10;;;;;;5045246;28;20500;-81
2023/05/31 02:44:35;;;;;;;2.43;1.30;;;12.00;99.40;;;;;;5040272;28;20547;-80
2023/05/31 02:47:02;;;;;;;3.47;2.47;;;12.00;98.40;;;;;;5047416;28;20917;-81
2023/05/31 02:49:28;;;;;;;2.10;1.70;;;12.00;98.30;;;;;;5043453;28;20482;-81
2023/05/31 02:51:55;;;;;;;2.37;1.20;;;11.90;98.00;;;;;;5032988;28;20930;-81
2023/05/31 02:54:24;;;;;;;4.43;1.97;;;12.00;97.60;;;;;;5037718;28;20547;-80
2023/05/31 02:56:51;;;;;;;6.60;2.07;;;12.00;96.40;;;;;;5042647;28;20484;-81
2023/05/31 02:59:18;;;;;;;3.07;1.60;;;11.80;95.40;;;;;;5044698;28;20499;-81
2023/05/31 03:01:45;;;;;;;3.13;1.93;;;11.80;94.70;;;;;;5047466;28;21224;-81
2023/05/31 03:04:12;;;;;;;3.20;1.57;;;11.80;94.20;;;;;;5036825;28;20517;-80
2023/05/31 03:06:39;;;;;;;2.33;1.30;;;12.00;94.30;;;;;;5042201;28;20528;-80
2023/05/31 03:09:07;;;;;;;2.00;1.37;;;11.90;94.50;;;;;;5032443;28;20831;-80
2023/05/31 03:11:35;;;;;;;2.37;1.80;;;11.90;94.80;;;;;;5039748;28;20553;-80
2023/05/31 03:14:02;;;;;;;2.50;1.30;;;11.80;94.70;;;;;;5033316;28;20439;-81
2023/05/31 03:16:30;;;;;;;2.63;1.23;;;11.80;95.00;;;;;;5036884;28;20517;-81
2023/05/31 03:18:57;;;;;;;1.90;0.97;;;11.90;94.20;;;;;;5043764;28;20450;-80
2023/05/31 03:21:24;;;;;;;2.40;1.33;;;11.90;92.30;;;;;;5037675;28;20508;-80
2023/05/31 03:23:51;;;;;;;3.43;1.57;;;11.90;92.20;;;;;;5042379;28;20474;-80
2023/05/31 03:26:18;;;;;;;2.50;1.23;;;11.90;92.10;;;;;;5043896;28;20465;-81
2023/05/31 03:28:46;;;;;;;1.67;1.10;;;11.90;91.60;;;;;;5043576;28;20500;-81
2023/05/31 03:31:13;;;;;;;5.23;2.37;;;11.90;91.70;;;;;;5041623;28;20496;-80
2023/05/31 03:33:40;;;;;;;2.60;1.30;;;12.00;91.80;;;;;;5044845;28;20465;-80
2023/05/31 03:36:07;;;;;;;4.20;1.80;;;12.00;91.80;;;;;;5046460;28;20542;-81
2023/05/31 03:38:34;;;;;;;1.73;1.10;;;11.90;91.80;;;;;;5045661;28;20443;-81
2023/05/31 03:41:01;;;;;;;4.90;1.60;;;11.90;91.60;;;;;;5042327;28;20476;-80
2023/05/31 03:43:28;;;;;;;1.50;1.27;;;11.90;91.70;;;;;;5036539;28;20489;-80
2023/05/31 03:46:00;;;;;;;2.53;1.13;;;11.80;91.70;;;;;;5035844;28;20477;-80
2023/05/31 03:48:27;;;;;;;2.30;1.10;;;11.80;91.50;;;;;;5035283;28;20480;-80
2023/05/31 03:50:54;;;;;;;3.00;1.50;;;11.90;91.50;;;;;;5042331;28;20485;-81
2023/05/31 03:53:21;;;;;;;5.30;2.03;;;11.80;91.70;;;;;;5048324;28;20495;-81
2023/05/31 03:55:48;;;;;;;2.40;1.60;;;11.80;92.00;;;;;;5048308;28;20473;-80
2023/05/31 03:58:15;;;;;;;6.13;1.83;;;11.80;92.20;;;;;;5062436;28;20449;-80
2023/05/31 04:00:42;;;;;;;5.30;1.37;;;11.80;92.30;;;;;;5060846;28;20939;-80
2023/05/31 04:03:11;;;;;;;2.60;1.77;;;11.80;92.40;;;;;;5060461;28;20441;-80
2023/05/31 04:05:38;;;;;;;4.63;2.23;;;11.70;92.10;;;;;;5049718;28;20507;-81
2023/05/31 04:08:05;;;;;;;1.80;1.10;;;11.70;92.90;;;;;;5045302;28;20489;-81
2023/05/31 04:10:32;;;;;;;2.83;1.40;;;11.80;92.70;;;;;;5048451;28;20550;-81
2023/05/31 04:12:59;;;;;;;2.83;1.10;;;11.70;92.60;;;;;;5043276;28;20495;-81
2023/05/31 04:15:27;;;;;;;3.00;1.40;;;11.80;92.90;;;;;;5040530;28;20565;-81
2023/05/31 04:17:55;;;;;;;2.67;1.63;;;11.80;92.60;;;;;;5038895;28;20481;-81
2023/05/31 04:20:23;;;;;;;5.47;1.60;;;11.70;93.10;;;;;;5047774;28;20473;-81
2023/05/31 04:22:50;;;;;;;11.73;3.43;;;11.80;93.40;;;;;;5047873;28;20859;-81
2023/05/31 04:25:17;;;;;;;2.40;1.63;;;11.80;93.40;;;;;;5042100;28;20496;-82
2023/05/31 04:27:44;;;;;;;3.00;2.53;;;11.80;93.60;;;;;;5046292;28;21003;-79
2023/05/31 04:30:12;;;;;;;3.53;1.77;;;11.80;94.00;;;;;;5037759;28;20826;-79
2023/05/31 04:32:39;;;;;;;5.10;1.60;;;11.90;94.40;;;;;;5063480;28;20516;-83
2023/05/31 04:35:08;;;;;;;3.20;1.70;;;12.00;94.70;;;;;;5052531;28;20531;-79
2023/05/31 04:37:36;;;;;;;3.50;1.53;;;12.00;95.40;;;;;;5051632;28;20485;-81
2023/05/31 04:40:05;;;;;;;4.20;1.90;;;12.20;95.90;;;;;;5038823;28;20464;-80
2023/05/31 04:42:32;;;;;;;2.33;1.53;;;12.20;95.80;;;;;;5043715;28;20457;-81
2023/05/31 04:45:01;;;;;;;3.20;1.80;;;12.30;95.90;;;;;;5031782;28;20521;-80
2023/05/31 04:47:28;;;;;;;3.73;2.10;;;12.20;96.30;;;;;;5046229;28;20543;-81
2023/05/31 04:49:56;;;;;;;3.53;1.67;;;12.20;96.50;;;;;;5045040;28;21244;-79
2023/05/31 04:52:26;;;;;;;5.10;2.10;;;12.20;96.80;;;;;;5042234;28;20549;-80
2023/05/31 04:54:54;;;;;;;4.83;1.80;;;12.30;96.90;;;;;;5047841;28;20485;-80
2023/05/31 04:57:22;;;;;;;3.07;1.83;;;12.30;97.40;;;;;;5040539;28;20502;-82
2023/05/31 04:59:49;;;;;;;5.70;1.90;;;12.40;97.50;;;;;;5044075;28;20489;-80
2023/05/31 05:02:17;;;;;;;7.50;2.20;;;12.60;97.60;;;;;;5047598;28;20457;-80
2023/05/31 05:04:45;;;;;;;5.30;2.10;;;12.70;98.20;;;;;;5044141;28;20490;-79
2023/05/31 05:07:12;;;;;;;2.03;1.80;;;12.80;97.80;;;;;;5042185;28;21158;-83
2023/05/31 05:09:39;;;;;;;9.20;2.47;;;13.00;98.20;;;;;;5046978;28;20446;-80
2023/05/31 05:12:08;;;;;;;3.60;2.57;;;13.00;98.00;;;;;;5049432;28;20487;-79
2023/05/31 05:14:35;;;;;;;2.33;1.90;;;13.00;97.90;;;;;;5046517;28;21034;-81
2023/05/31 05:17:02;;;;;;;7.40;2.37;;;13.10;96.90;;;;;;5044512;28;20574;-80
2023/05/31 05:19:29;;;;;;;4.20;1.90;;;13.00;97.00;;;;;;5046020;28;20499;-80
2023/05/31 05:21:56;;;;;;;5.80;1.90;;;13.10;97.50;;;;;;5044250;28;20545;-79
2023/05/31 05:24:23;;;;;;;6.93;2.83;;;13.10;96.80;;;;;;5043725;28;20488;-82
2023/05/31 05:26:50;;;;;;;3.93;1.80;;;13.30;97.60;;;;;;5044366;28;20891;-80
2023/05/31 05:29:19;;;;;;;3.67;2.50;;;13.60;96.70;;;;;;5046248;28;20484;-83
2023/05/31 05:31:47;;;;;;;4.60;3.47;;;13.70;96.50;;;;;;5050253;28;20492;-80
2023/05/31 05:34:14;;;;;;;4.60;2.77;;;13.80;97.10;;;;;;5040524;28;20464;-80
2023/05/31 05:36:41;;;;;;;8.50;2.70;;;13.90;96.40;;;;;;5042382;28;20703;-80
2023/05/31 05:39:08;;;;;;;3.60;2.13;;;14.00;96.90;;;;;;5043213;28;20473;-79
2023/05/31 05:41:35;;;;;;;6.10;2.00;;;14.10;95.80;;;;;;5045819;28;20853;-84
2023/05/31 05:44:02;;;;;;;3.87;2.57;;;14.20;96.00;;;;;;5044578;28;20488;-82
2023/05/31 05:46:30;;;;;;;3.90;2.40;;;14.40;95.80;;;;;;5049351;28;20492;-79
2023/05/31 05:48:57;;;;;;;6.37;3.10;;;14.20;96.10;;;;;;5038315;28;20454;-79
2023/05/31 05:51:24;;;;;;;3.47;2.17;;;14.30;96.10;;;;;;5036138;28;20448;-79
2023/05/31 05:53:51;;;;;;;3.30;1.83;;;14.50;94.40;;;;;;5052133;28;20474;-79
2023/05/31 05:56:18;;;;;;;7.10;3.07;;;14.70;95.20;;;;;;5044127;28;20489;-79
2023/05/31 05:58:46;;;;;;;4.70;1.90;;;14.90;93.80;;;;;;5041619;28;20927;-78
2023/05/31 06:01:18;;;;;;;3.37;2.37;;;15.00;94.70;;;;;;5038086;28;20458;-81
2023/05/31 06:03:48;;;;;;;6.33;2.63;;;15.30;94.30;;;;;;5050493;28;20453;-81
2023/05/31 06:06:16;;;;;;;4.73;2.03;;;15.50;94.10;;;;;;5043342;28;20464;-80
2023/05/31 06:08:44;;;;;;;8.83;2.63;;;15.50;93.50;;;;;;5034340;28;21459;-81
2023/05/31 06:11:11;;;;;;;4.00;2.40;;;15.50;93.40;;;;;;5041670;28;20506;-80
2023/05/31 06:13:38;;;;;;;6.63;2.23;;;15.40;93.30;;;;;;5075481;28;20457;-80
2023/05/31 06:16:06;;;;;;;3.00;1.67;;;15.60;93.40;;;;;;5047562;28;20601;-80
2023/05/31 06:18:33;;;;;;;3.13;2.20;;;15.80;94.10;;;;;;5046782;28;21284;-79
2023/05/31 06:21:01;;;;;;;4.77;2.43;;;15.80;93.20;;;;;;5036662;28;20446;-81
2023/05/31 06:23:30;;;;;;;3.90;1.80;;;16.00;92.80;;;;;;5033744;28;20867;-80
2023/05/31 06:25:57;;;;;;;2.30;1.70;;;16.20;93.70;;;;;;5035659;28;20437;-81
2023/05/31 06:28:24;;;;;;;8.47;2.50;;;16.30;92.20;;;;;;5034225;28;20450;-80
2023/05/31 06:30:51;;;;;;;5.07;2.20;;;16.30;92.50;;;;;;5036565;28;20603;-78
2023/05/31 06:33:18;;;;;;;11.20;2.67;;;16.50;92.30;;;;;;5041207;28;20513;-78
2023/05/31 06:35:44;;;;;;;4.83;2.27;;;16.20;91.80;;;;;;5039551;28;20566;-77
2023/05/31 06:38:14;;;;;;;3.30;2.80;;;16.10;91.70;;;;;;5042010;28;20454;-78
2023/05/31 06:40:42;;;;;;;5.83;2.90;;;16.40;93.40;;;;;;5041891;28;20438;-79
2023/05/31 06:43:10;;;;;;;3.17;2.10;;;16.70;91.40;;;;;;5036333;28;20442;-78
2023/05/31 06:45:38;;;;;;;4.57;2.63;;;16.80;88.90;;;;;;5031837;28;20485;-83
2023/05/31 06:48:05;;;;;;;6.17;2.37;;;17.00;88.70;;;;;;5048827;28;20503;-81
2023/05/31 06:50:32;;;;;;;2.63;2.10;;;17.10;91.50;;;;;;5038200;28;20501;-80
2023/05/31 06:52:59;;;;;;;6.27;2.33;;;17.30;90.00;;;;;;5035118;28;20491;-81
2023/05/31 06:55:27;;;;;;;4.73;1.97;;;17.50;84.80;;;;;;5048817;28;20535;-82
2023/05/31 06:57:54;;;;;;;2.20;1.50;;;17.60;83.90;;;;;;5046547;28;20493;-80
2023/05/31 07:00:21;;;;;;;6.60;2.37;;;17.40;80.60;;;;;;5048414;28;21027;-81
2023/05/31 07:02:48;;;;;;;3.97;1.53;;;17.60;80.40;;;;;;5045444;28;20493;-82
2023/05/31 07:05:15;;;;;;;3.43;1.47;;;17.70;83.80;;;;;;5048774;28;20535;-81
2023/05/31 07:07:42;;;;;;;8.27;1.63;;;17.80;82.50;;;;;;5046027;28;20500;-78
2023/05/31 07:10:10;;;;;;;3.57;1.67;;;17.90;78.40;;;;;;5045676;28;20535;-79
2023/05/31 07:12:38;;;;;;;3.87;1.60;;;18.10;79.70;;;;;;5048597;28;20460;-79
2023/05/31 07:15:06;;;;;;;3.57;2.20;;;18.30;78.30;;;;;;5048918;28;20446;-79
2023/05/31 07:17:33;;;;;;;3.70;1.23;;;18.20;78.10;;;;;;5046501;28;20559;-79
2023/05/31 07:20:00;;;;;;;3.60;1.30;;;18.50;73.10;;;;;;5048507;28;20477;-79
2023/05/31 07:22:27;;;;;;;5.07;2.37;;;18.40;77.50;;;;;;5045273;28;21059;-80
2023/05/31 07:24:54;;;;;;;3.97;1.97;;;18.50;72.80;;;;;;5048934;28;20490;-79
2023/05/31 07:27:22;;;;;;;6.77;1.63;;;18.60;77.30;;;;;;5042780;28;20505;-79
2023/05/31 07:29:51;;;;;;;3.73;2.33;;;18.60;73.60;;;;;;5037923;28;20464;-79
2023/05/31 07:32:18;;;;;;;3.30;1.93;;;18.70;71.00;;;;;;5039856;28;20493;-79
2023/05/31 07:34:45;;;;;;;3.80;2.23;;;18.60;71.70;;;;;;5041326;28;20443;-79
2023/05/31 07:37:11;;;;;;;3.57;2.23;;;18.40;78.60;;;;;;5036733;28;20566;-79
2023/05/31 07:39:38;;;;;;;3.73;2.33;;;18.70;76.90;;;;;;5036657;28;21285;-79
2023/05/31 07:42:06;;;;;;;4.33;1.90;;;18.70;71.80;;;;;;5040655;28;20467;-79
2023/05/31 07:44:33;;;;;;;4.50;1.77;;;18.60;74.20;;;;;;5036741;28;20506;-79
2023/05/31 07:47:01;;;;;;;6.43;2.33;;;18.70;76.30;;;;;;5032928;28;20519;-79
2023/05/31 07:49:28;;;;;;;3.37;1.77;;;18.90;73.00;;;;;;5039452;28;20444;-79
2023/05/31 07:51:55;;;;;;;3.90;2.00;;;19.00;76.10;;;;;;5036411;28;20538;-79
2023/05/31 07:54:22;;;;;;;4.00;1.97;;;19.00;74.40;;;;;;5045204;28;20452;-79
2023/05/31 07:56:49;;;;;;;5.03;1.60;;;19.10;71.90;;;;;;5046663;28;20509;-78
2023/05/31 07:59:16;;;;;;;3.50;1.90;;;19.10;71.10;;;;;;5047208;28;20442;-79
2023/05/31 08:01:43;;;;;;;7.30;1.80;;;19.60;69.70;;;;;;5047380;28;20450;-79
2023/05/31 08:04:13;;;;;;;2.80;2.00;;;19.40;69.80;;;;;;5044578;28;20476;-78
2023/05/31 08:06:41;;;;;;;6.23;1.60;;;19.30;74.70;;;;;;5039487;28;20449;-79
2023/05/31 08:09:09;;;;;;;3.63;2.10;;;19.20;74.10;;;;;;5046163;28;20462;-78
2023/05/31 08:11:36;;;;;;;10.87;1.97;;;19.50;72.30;;;;;;5048107;28;20472;-79
2023/05/31 08:14:03;;;;;;;4.40;2.47;;;19.50;77.30;;;;;;5047173;28;20526;-79
2023/05/31 08:16:32;;;;;;;4.47;1.93;;;19.90;79.10;;;;;;5047837;28;20929;-79
2023/05/31 08:18:58;;;;;;;3.90;1.73;;;20.10;68.70;;;;;;5046815;28;20493;-79
2023/05/31 08:21:27;;;;;;;2.70;2.10;;;20.00;67.80;;;;;;5044880;28;20496;-79
2023/05/31 08:23:55;;;;;;;2.80;2.17;;;19.40;70.00;;;;;;5047208;28;21080;-79
2023/05/31 08:26:22;;;;;;;9.70;1.80;;;19.20;70.10;;;;;;5046007;28;20554;-79
2023/05/31 08:28:49;;;;;;;4.80;2.20;;;19.40;70.50;;;;;;5047926;28;20523;-78
2023/05/31 08:31:16;;;;;;;3.53;1.63;;;19.60;67.90;;;;;;5047857;28;21031;-79
2023/05/31 08:33:54;;;;;;;2.90;1.47;;;19.70;67.00;;;;;;5045648;28;20492;-79
2023/05/31 08:36:20;;;;;;;2.63;1.83;;;20.10;67.40;;;;;;5046291;28;21106;-79
2023/05/31 08:38:49;;;;;;;5.63;1.97;;;20.00;70.00;;;;;;5047272;28;20477;-79
2023/05/31 08:41:17;;;;;;;6.23;1.87;;;20.00;69.40;;;;;;5047264;28;20477;-79
2023/05/31 08:43:45;;;;;;;4.27;2.53;;;20.20;75.50;;;;;;5045358;28;20481;-79
2023/05/31 08:46:15;;;;;;;6.00;1.97;;;20.30;65.70;;;;;;5045464;28;20520;-79
2023/05/31 08:48:46;;;;;;;2.97;2.00;;;20.30;74.00;;;;;;5047101;28;20515;-79
2023/05/31 08:51:14;;;;;;;6.43;2.53;;;20.50;66.70;;;;;;5040684;28;20470;-79
2023/05/31 08:53:42;;;;;;;4.00;2.10;;;20.40;64.50;;;;;;5039180;28;20842;-79
2023/05/31 08:56:11;;;;;;;5.77;2.20;;;20.50;69.00;;;;;;5047070;28;20441;-79
2023/05/31 08:58:39;;;;;;;2.37;2.10;;;20.70;69.20;;;;;;5046532;28;20536;-79
2023/05/31 09:01:07;;;;;;;4.07;2.03;;;20.80;67.20;;;;;;5045266;28;20484;-79
2023/05/31 09:03:34;;;;;;;3.90;2.13;;;21.00;67.70;;;;;;5045878;28;20506;-78
2023/05/31 09:06:00;;;;;;;3.90;1.93;;;21.10;69.70;;;;;;5046601;28;20453;-79
2023/05/31 09:08:33;;;;;;;3.97;2.10;;;20.70;63.60;;;;;;5047112;28;20445;-79
2023/05/31 09:11:00;;;;;;;2.70;2.10;;;20.50;70.30;;;;;;5046414;28;20490;-78
2023/05/31 09:13:29;;;;;;;3.37;1.50;;;20.90;72.30;;;;;;5046533;28;20495;-79
2023/05/31 09:15:56;;;;;;;3.37;2.33;;;20.90;67.70;;;;;;5044798;28;20586;-79
2023/05/31 09:18:29;;;;;;;3.10;1.97;;;21.00;72.60;;;;;;5034326;28;20505;-79
2023/05/31 09:20:56;;;;;;;5.60;2.07;;;21.10;68.40;;;;;;5033020;28;21035;-79
2023/05/31 09:23:23;;;;;;;6.83;2.67;;;21.10;66.00;;;;;;5032807;28;21027;-79
2023/05/31 09:25:52;;;;;;;6.77;2.27;;;21.00;67.40;;;;;;5030861;28;20555;-79
2023/05/31 09:28:20;;;;;;;5.50;2.80;;;21.00;64.20;;;;;;5038226;28;20471;-79
2023/05/31 09:31:03;;;;;;;5.50;3.10;;;21.10;66.70;;;;;;5040294;28;20488;-79
2023/05/31 09:33:40;;;;;;;3.93;1.87;;;21.30;74.30;;;;;;5039132;28;21136;-79
2023/05/31 09:36:07;;;;;;;6.43;1.60;;;21.70;66.00;;;;;;5038464;28;20805;-79
2023/05/31 09:38:36;;;;;;;8.50;2.63;;;21.30;68.30;;;;;;5037166;28;20578;-79
2023/05/31 09:41:13;;;;;;;5.17;2.60;;;21.40;70.70;;;;;;5041570;28;20534;-79
2023/05/31 09:43:41;;;;;;;3.93;2.67;;;21.10;66.70;;;;;;5033497;28;20469;-79
2023/05/31 09:46:14;;;;;;;5.43;2.30;;;21.30;63.80;;;;;;5041878;28;20477;-79
2023/05/31 09:48:41;;;;;;;4.80;2.17;;;21.40;65.30;;;;;;5037741;28;20529;-79
2023/05/31 09:51:09;;;;;;;6.43;2.30;;;21.30;66.20;;;;;;5028650;28;20552;-79
2023/05/31 09:53:41;;;;;;;1.90;1.33;;;21.60;65.60;;;;;;5043839;28;20461;-79
2023/05/31 09:56:11;;;;;;;8.00;2.53;;;21.90;67.80;;;;;;5043868;28;20561;-79
2023/05/31 09:58:39;;;;;;;7.00;2.43;;;22.10;70.30;;;;;;5041627;28;20476;-79
2023/05/31 10:01:07;;;;;;;3.43;2.10;;;22.00;69.50;;;;;;5032264;28;20472;-79
2023/05/31 10:03:36;;;;;;;5.70;2.27;;;22.00;63.60;;;;;;5043196;28;20493;-79
2023/05/31 10:06:03;;;;;;;6.43;1.73;;;21.80;66.40;;;;;;5042795;28;21078;-79
2023/05/31 10:08:32;;;;;;;3.23;2.00;;;22.20;69.20;;;;;;5045182;28;20522;-79
2023/05/31 10:11:00;;;;;;;6.13;2.40;;;22.10;65.70;;;;;;5032448;28;20517;-79
2023/05/31 10:13:29;;;;;;;9.90;2.17;;;22.30;69.30;;;;;;5025407;28;20441;-79
2023/05/31 10:15:57;;;;;;;3.03;2.13;;;22.30;67.50;;;;;;5029618;28;20437;-79
2023/05/31 10:18:29;;;;;;;3.90;2.33;;;22.60;70.50;;;;;;5038104;28;20510;-79
2023/05/31 10:21:07;;;;;;;2.20;2.00;;;22.40;63.30;;;;;;5027783;28;20533;-79
2023/05/31 10:23:41;;;;;;;2.23;1.83;;;22.40;69.50;;;;;;5038331;28;20959;-79
2023/05/31 10:26:14;;;;;;;6.83;3.10;;;22.20;63.00;;;;;;5036827;28;20873;-79
2023/05/31 10:28:51;;;;;;;3.30;2.40;;;21.90;64.30;;;;;;5032587;28;20452;-79
2023/05/31 10:31:23;;;;;;;5.13;2.90;;;22.20;71.90;;;;;;5032083;28;20485;-79
2023/05/31 10:33:54;;;;;;;2.87;1.90;;;22.40;70.70;;;;;;5036861;28;20533;-79
2023/05/31 10:36:23;;;;;;;4.40;2.50;;;22.60;69.30;;;;;;5047744;28;20488;-79
2023/05/31 10:38:58;;;;;;;2.17;1.97;;;22.40;67.90;;;;;;5040124;28;20481;-78
2023/05/31 10:41:34;;;;;;;2.80;2.13;;;22.60;67.50;;;;;;5037554;28;20924;-79
2023/05/31 10:44:07;;;;;;;4.60;2.37;;;22.80;63.80;;;;;;5029062;28;20450;-79
2023/05/31 10:46:38;;;;;;;2.57;2.37;;;22.90;65.40;;;;;;5043351;28;20480;-79
2023/05/31 10:49:06;;;;;;;3.23;2.47;;;22.90;65.20;;;;;;5044116;28;20510;-79
2023/05/31 10:51:41;;;;;;;5.83;2.27;;;22.70;63.20;;;;;;5038906;28;20561;-78
2023/05/31 10:54:09;;;;;;;8.60;3.10;;;22.60;65.30;;;;;;5044652;28;21025;-79
2023/05/31 10:56:38;;;;;;;5.13;2.20;;;22.50;65.20;;;;;;5047436;28;20458;-79
2023/05/31 10:59:05;;;;;;;3.93;2.20;;;22.40;66.90;;;;;;5047681;28;20445;-79
2023/05/31 11:01:32;;;;;;;2.20;2.00;;;22.70;68.10;;;;;;5049064;28;21043;-79
2023/05/31 11:04:00;;;;;;;7.33;2.80;;;22.40;70.00;;;;;;5048355;28;20499;-79
2023/05/31 11:06:28;;;;;;;5.10;2.00;;;22.60;64.40;;;;;;5048796;28;20840;-79
2023/05/31 11:09:00;;;;;;;4.27;3.30;;;22.50;68.50;;;;;;5047184;28;20872;-79
2023/05/31 11:11:29;;;;;;;2.83;2.60;;;22.80;70.90;;;;;;5048835;28;20543;-79
2023/05/31 11:13:58;;;;;;;2.93;2.63;;;22.90;68.90;;;;;;5048699;28;20438;-79
2023/05/31 11:16:25;;;;;;;2.53;2.23;;;23.40;69.40;;;;;;5048203;28;20922;-79
2023/05/31 11:19:04;;;;;;;3.90;2.53;;;23.10;65.40;;;;;;5044866;28;20480;-79
2023/05/31 11:21:47;;;;;;;3.73;3.00;;;23.40;63.00;;;;;;5045817;28;20561;-79
2023/05/31 11:24:28;;;;;;;3.60;2.53;;;23.60;61.20;;;;;;5046378;28;20448;-79
2023/05/31 11:26:55;;;;;;;2.87;2.57;;;23.50;63.40;;;;;;5046171;28;20490;-79
2023/05/31 11:29:22;;;;;;;4.37;2.60;;;23.50;63.00;;;;;;5048290;28;20465;-79
2023/05/31 11:32:01;;;;;;;4.30;2.80;;;23.50;64.10;;;;;;5046262;28;20584;-79
2023/05/31 11:34:29;;;;;;;3.30;2.40;;;23.50;65.10;;;;;;5038885;28;20469;-79
2023/05/31 11:37:01;;;;;;;3.40;3.10;;;23.70;62.00;;;;;;5043787;28;20459;-78
2023/05/31 11:39:30;;;;;;;3.70;2.23;;;23.60;64.20;;;;;;5043844;28;20441;-78
2023/05/31 11:41:58;;;;;;;8.60;3.03;;;23.40;64.40;;;;;;5042338;28;20452;-79
2023/05/31 11:44:29;;;;;;;7.00;3.20;;;23.40;63.60;;;;;;5044893;28;20964;-78
2023/05/31 11:47:05;;;;;;;3.97;3.30;;;23.40;65.60;;;;;;5044519;28;20976;-78
2023/05/31 11:49:33;;;;;;;5.03;3.20;;;23.40;65.80;;;;;;5036915;28;20430;-78
2023/05/31 11:52:00;;;;;;;3.33;3.13;;;23.60;63.40;;;;;;5035264;28;20443;-79
2023/05/31 11:54:30;;;;;;;4.17;2.13;;;23.90;62.00;;;;;;5043137;28;20637;-79
2023/05/31 11:57:03;;;;;;;2.70;2.50;;;23.90;59.10;;;;;;5032304;28;20543;-79
2023/05/31 11:59:32;;;;;;;6.93;2.97;;;23.60;62.30;;;;;;5039332;28;20553;-79
2023/05/31 12:02:01;;;;;;;9.27;3.23;;;23.70;64.10;;;;;;5029261;28;20451;-77
2023/05/31 12:04:36;;;;;;;3.00;2.30;;;24.00;65.60;;;;;;5034803;28;20516;-78
2023/05/31 12:07:04;;;;;;;5.30;3.07;;;24.00;60.50;;;;;;5044520;28;20441;-78
2023/05/31 12:09:34;;;;;;;5.50;3.60;;;24.00;59.00;;;;;;5039171;28;20543;-78
2023/05/31 12:12:02;;;;;;;5.90;4.77;;;24.00;62.50;;;;;;5046568;28;20489;-77
2023/05/31 12:14:30;;;;;;;4.10;3.23;;;24.10;62.20;;;;;;5038479;28;20451;-78
2023/05/31 12:16:57;;;;;;;15.67;3.77;;;23.90;58.60;;;;;;5041921;28;20496;-78
2023/05/31 12:19:24;;;;;;;3.73;2.47;;;23.90;61.40;;;;;;5045762;28;20481;-78
2023/05/31 12:21:51;;;;;;;7.10;3.10;;;24.20;64.10;;;;;;5039421;28;21005;-78
2023/05/31 12:24:19;;;;;;;3.20;2.90;;;24.60;65.00;;;;;;5037671;28;20434;-78
2023/05/31 12:26:49;;;;;;;9.80;3.40;;;24.50;60.90;;;;;;5033305;28;20549;-78
2023/05/31 12:29:16;;;;;;;3.83;2.60;;;24.50;59.30;;;;;;5041126;28;20525;-78
2023/05/31 12:31:43;;;;;;;3.33;3.03;;;24.60;62.40;;;;;;5035924;28;20512;-78
2023/05/31 12:34:12;;;;;;;4.80;3.53;;;24.40;62.40;;;;;;5032739;28;20569;-78
2023/05/31 12:36:41;;;;;;;3.27;2.50;;;24.40;58.40;;;;;;5036747;28;20448;-78
2023/05/31 12:39:11;;;;;;;4.07;2.83;;;24.60;61.80;;;;;;5036191;28;21076;-78
2023/05/31 12:41:38;;;;;;;2.97;2.10;;;24.10;57.90;;;;;;5036406;28;20458;-77
2023/05/31 12:44:07;;;;;;;3.67;3.33;;;24.00;59.60;;;;;;5027165;28;20447;-78
2023/05/31 12:46:39;;;;;;;4.17;2.93;;;24.40;62.60;;;;;;5038956;28;20454;-78
2023/05/31 12:49:20;;;;;;;3.07;2.87;;;24.40;59.70;;;;;;5038336;28;20491;-77
2023/05/31 12:51:47;;;;;;;3.10;2.00;;;24.20;59.70;;;;;;5032639;28;20482;-77